Ingeniero Luiggi, Argentina
Current Conditions -  °F | °C
As of 2:00 PM on Tuesday 21 Oct 2014 (Local Time) from SAOC Reporting Station
Clear Clear  
Wind Chill: 86°   Ceiling: Unl
Heat Index: 86°   Visibility: 6mi
Dew Point: 57°   Wind: 32mph
Humidity: 37%   Direction: 360°N
Pressure: 29.91"   Gusts: 45mph
Location:  35.42°S, 64.48°W
Report Text: SAOC 211700Z 36028G39KT CAVOK 30/14 Q1013
Loading
Personal Weather Stations






























Interactive Weather Map
Tropical Storm Tracking
New forecast layout! Learn more

10-Day Weather Forecast

Advertisements
Track Severe Weather on mobile